createdAt,value
2017-10-27T00:00:08.365Z,942.77
2017-10-27T00:01:08.366Z,942.71
2017-10-27T00:02:08.365Z,942.77
2017-10-27T00:03:08.365Z,942.82
2017-10-27T00:04:08.364Z,942.80
2017-10-27T00:05:08.373Z,942.74
2017-10-27T00:06:08.365Z,942.73
2017-10-27T00:07:08.366Z,942.72
2017-10-27T00:08:08.366Z,942.68
2017-10-27T00:09:08.365Z,942.70
2017-10-27T00:10:08.367Z,942.69
2017-10-27T00:11:08.417Z,942.68
2017-10-27T00:12:08.366Z,942.72
2017-10-27T00:13:08.366Z,942.69
2017-10-27T00:14:08.368Z,942.63
2017-10-27T00:15:08.367Z,942.56
2017-10-27T00:16:08.367Z,942.60
2017-10-27T00:17:08.366Z,942.65
2017-10-27T00:18:08.367Z,942.61
2017-10-27T00:19:08.367Z,942.52
2017-10-27T00:20:08.366Z,942.55
2017-10-27T00:21:08.367Z,942.58
2017-10-27T00:22:08.367Z,942.58
2017-10-27T00:23:08.367Z,942.55
2017-10-27T00:24:08.366Z,942.54
2017-10-27T00:25:08.376Z,942.53
2017-10-27T00:26:08.367Z,942.59
2017-10-27T00:27:08.367Z,942.57
2017-10-27T00:28:08.367Z,942.53
2017-10-27T00:29:08.367Z,942.54
2017-10-27T00:30:08.368Z,942.51
2017-10-27T00:31:08.367Z,942.53
2017-10-27T00:32:08.367Z,942.49
2017-10-27T00:33:08.367Z,942.47
2017-10-27T00:34:08.366Z,942.46
2017-10-27T00:35:08.369Z,942.47
2017-10-27T00:36:08.367Z,942.44
2017-10-27T00:37:08.368Z,942.38
2017-10-27T00:38:08.368Z,942.34
2017-10-27T00:39:08.370Z,942.38
2017-10-27T00:40:08.367Z,942.40
2017-10-27T00:41:08.368Z,942.36
2017-10-27T00:42:08.366Z,942.30
2017-10-27T00:43:08.366Z,942.29
2017-10-27T00:44:08.366Z,942.33
2017-10-27T00:45:08.366Z,942.31
2017-10-27T00:46:08.367Z,942.31
2017-10-27T00:47:08.369Z,942.31
2017-10-27T00:48:08.415Z,942.30
2017-10-27T00:49:08.416Z,942.27
2017-10-27T00:50:08.366Z,942.33
2017-10-27T00:51:08.367Z,942.29
2017-10-27T00:52:08.367Z,942.23
2017-10-27T00:53:08.367Z,942.23
2017-10-27T00:54:08.365Z,942.16
2017-10-27T00:55:08.372Z,942.20
2017-10-27T00:56:08.367Z,942.13
2017-10-27T00:57:08.366Z,942.12
2017-10-27T00:58:08.367Z,942.13
2017-10-27T00:59:08.368Z,942.13
2017-10-27T01:00:08.366Z,942.11
2017-10-27T01:01:08.366Z,942.12
2017-10-27T01:02:08.367Z,942.11
2017-10-27T01:03:08.366Z,942.13
2017-10-27T01:04:08.366Z,942.07
2017-10-27T01:05:08.366Z,942.13
2017-10-27T01:06:08.368Z,942.09
2017-10-27T01:07:08.367Z,942.02
2017-10-27T01:08:08.416Z,942.04
2017-10-27T01:09:08.367Z,942.07
2017-10-27T01:10:08.366Z,942.01
2017-10-27T01:11:08.367Z,941.95
2017-10-27T01:12:08.366Z,941.89
2017-10-27T01:13:08.367Z,941.91
2017-10-27T01:14:08.366Z,941.93
2017-10-27T01:15:08.369Z,941.85
2017-10-27T01:16:08.367Z,941.83
2017-10-27T01:17:08.367Z,941.83
2017-10-27T01:18:08.366Z,941.80
2017-10-27T01:19:08.367Z,941.77
2017-10-27T01:20:08.366Z,941.85
2017-10-27T01:21:08.366Z,941.85
2017-10-27T01:22:08.367Z,941.72
2017-10-27T01:23:08.366Z,941.76
2017-10-27T01:24:08.416Z,941.70
2017-10-27T01:25:08.365Z,941.69
2017-10-27T01:26:08.365Z,941.63
2017-10-27T01:27:08.366Z,941.66
2017-10-27T01:28:08.365Z,941.70
2017-10-27T01:29:08.365Z,941.69
2017-10-27T01:30:08.364Z,941.67
2017-10-27T01:31:08.365Z,941.61
2017-10-27T01:32:08.363Z,941.57
2017-10-27T01:33:08.364Z,941.56
2017-10-27T01:34:08.365Z,941.55
2017-10-27T01:35:08.364Z,941.52
2017-10-27T01:36:08.364Z,941.54
2017-10-27T01:37:08.364Z,941.55
2017-10-27T01:38:08.364Z,941.51
2017-10-27T01:39:08.365Z,941.43
2017-10-27T01:40:08.362Z,941.44
2017-10-27T01:41:08.362Z,941.39
2017-10-27T01:42:08.364Z,941.43
2017-10-27T01:43:08.362Z,941.45
2017-10-27T01:44:08.361Z,941.43
2017-10-27T01:45:08.362Z,941.40
2017-10-27T01:46:08.362Z,941.33
2017-10-27T01:47:08.362Z,941.31
2017-10-27T01:48:08.361Z,941.30
2017-10-27T01:49:08.360Z,941.31
2017-10-27T01:50:08.361Z,941.30
2017-10-27T01:51:08.363Z,941.26
2017-10-27T01:52:08.410Z,941.34
2017-10-27T01:53:08.359Z,941.27
2017-10-27T01:54:08.360Z,941.31
2017-10-27T01:55:08.359Z,941.30
2017-10-27T01:56:08.360Z,941.29
2017-10-27T01:57:08.360Z,941.25
2017-10-27T01:58:08.361Z,941.28
2017-10-27T01:59:08.360Z,941.20
2017-10-27T02:00:08.359Z,941.21
2017-10-27T02:01:08.359Z,941.27
2017-10-27T02:02:08.359Z,941.24
2017-10-27T02:03:08.359Z,941.21
2017-10-27T02:04:08.359Z,941.15
2017-10-27T02:05:08.358Z,941.19
2017-10-27T02:06:08.358Z,941.20
2017-10-27T02:07:08.408Z,941.13
2017-10-27T02:08:08.358Z,941.19
2017-10-27T02:09:08.357Z,941.14
2017-10-27T02:10:08.357Z,941.17
2017-10-27T02:11:08.358Z,941.08
2017-10-27T02:12:08.356Z,941.06
2017-10-27T02:13:08.358Z,941.05
2017-10-27T02:14:08.356Z,941.04
2017-10-27T02:15:08.360Z,941.09
2017-10-27T02:16:08.357Z,941.07
2017-10-27T02:17:08.354Z,941.07
2017-10-27T02:18:08.355Z,941.02
2017-10-27T02:19:08.355Z,941.05
2017-10-27T02:20:08.404Z,940.95
2017-10-27T02:21:08.354Z,940.95
2017-10-27T02:22:08.355Z,940.92
2017-10-27T02:23:08.354Z,940.90
2017-10-27T02:24:08.353Z,940.86
2017-10-27T02:25:08.356Z,940.83
2017-10-27T02:26:08.354Z,940.85
2017-10-27T02:27:08.354Z,940.88
2017-10-27T02:28:08.353Z,940.84
2017-10-27T02:29:08.353Z,940.83
2017-10-27T02:30:08.409Z,940.83
2017-10-27T02:31:08.353Z,940.84
2017-10-27T02:32:08.352Z,940.77
2017-10-27T02:33:08.352Z,940.88
2017-10-27T02:34:08.352Z,940.82
2017-10-27T02:35:08.402Z,940.78
2017-10-27T02:36:08.351Z,940.80
2017-10-27T02:37:08.351Z,940.81
2017-10-27T02:38:08.351Z,940.78
2017-10-27T02:39:08.353Z,940.83
2017-10-27T02:40:08.355Z,940.85
2017-10-27T02:41:08.354Z,940.77
2017-10-27T02:42:08.351Z,940.77
2017-10-27T02:43:08.352Z,940.83
2017-10-27T02:44:08.353Z,940.78
2017-10-27T02:45:08.350Z,940.71
2017-10-27T02:46:08.350Z,940.75
2017-10-27T02:47:08.351Z,940.75
2017-10-27T02:48:08.351Z,940.74
2017-10-27T02:49:08.349Z,940.74
2017-10-27T02:50:08.351Z,940.77
2017-10-27T02:51:08.349Z,940.71
2017-10-27T02:52:08.350Z,940.69
2017-10-27T02:53:08.350Z,940.65
2017-10-27T02:54:08.356Z,940.73
2017-10-27T02:55:08.351Z,940.73
2017-10-27T02:56:08.349Z,940.74
2017-10-27T02:57:08.349Z,940.81
2017-10-27T02:58:08.400Z,940.77
2017-10-27T02:59:08.349Z,940.71
2017-10-27T03:00:08.648Z,940.68
2017-10-27T03:01:08.348Z,940.61
2017-10-27T03:02:08.349Z,940.58
2017-10-27T03:03:08.349Z,940.52
2017-10-27T03:04:08.398Z,940.53
2017-10-27T03:05:08.349Z,940.56
2017-10-27T03:06:08.398Z,940.55
2017-10-27T03:07:08.362Z,940.56
2017-10-27T03:08:08.348Z,940.61
2017-10-27T03:09:08.348Z,940.63
2017-10-27T03:10:08.350Z,940.59
2017-10-27T03:11:08.348Z,940.62
2017-10-27T03:12:08.349Z,940.56
2017-10-27T03:13:08.349Z,940.56
2017-10-27T03:14:08.348Z,940.57
2017-10-27T03:15:08.349Z,940.58
2017-10-27T03:16:08.352Z,940.56
2017-10-27T03:17:08.349Z,940.59
2017-10-27T03:18:08.349Z,940.60
2017-10-27T03:19:08.350Z,940.62
2017-10-27T03:20:08.351Z,940.63
2017-10-27T03:21:08.349Z,940.60
2017-10-27T03:22:08.350Z,940.61
2017-10-27T03:23:08.351Z,940.62
2017-10-27T03:24:08.350Z,940.60
2017-10-27T03:25:08.350Z,940.63
2017-10-27T03:26:08.351Z,940.59
2017-10-27T03:27:08.352Z,940.62
2017-10-27T03:28:08.351Z,940.54
2017-10-27T03:29:08.351Z,940.52
2017-10-27T03:30:08.360Z,940.53
2017-10-27T03:31:08.353Z,940.53
2017-10-27T03:32:08.351Z,940.51
2017-10-27T03:33:08.352Z,940.52
2017-10-27T03:34:08.353Z,940.54
2017-10-27T03:35:08.354Z,940.56
2017-10-27T03:36:08.354Z,940.53
2017-10-27T03:37:08.353Z,940.57
2017-10-27T03:38:08.353Z,940.53
2017-10-27T03:39:08.354Z,940.50
2017-10-27T03:40:08.353Z,940.44
2017-10-27T03:41:08.353Z,940.38
2017-10-27T03:42:08.355Z,940.36
2017-10-27T03:43:08.354Z,940.39
2017-10-27T03:44:08.354Z,940.41
2017-10-27T03:45:08.354Z,940.35
2017-10-27T03:46:08.356Z,940.32
2017-10-27T03:47:08.405Z,940.34
2017-10-27T03:48:08.354Z,940.28
2017-10-27T03:49:08.354Z,940.32
2017-10-27T03:50:08.354Z,940.37
2017-10-27T03:51:08.355Z,940.40
2017-10-27T03:52:08.355Z,940.35
2017-10-27T03:53:08.360Z,940.35
2017-10-27T03:54:08.356Z,940.34
2017-10-27T03:55:08.357Z,940.25
2017-10-27T03:56:08.357Z,940.21
2017-10-27T03:57:08.357Z,940.29
2017-10-27T03:58:08.357Z,940.30
2017-10-27T03:59:08.358Z,940.27
2017-10-27T04:00:08.409Z,940.29
2017-10-27T04:01:08.358Z,940.32
2017-10-27T04:02:08.358Z,940.33
2017-10-27T04:03:08.360Z,940.26
2017-10-27T04:04:08.416Z,940.27
2017-10-27T04:05:08.361Z,940.28
2017-10-27T04:06:08.362Z,940.32
2017-10-27T04:07:08.363Z,940.32
2017-10-27T04:08:08.363Z,940.28
2017-10-27T04:09:08.363Z,940.28
2017-10-27T04:10:08.365Z,940.30
2017-10-27T04:11:08.365Z,940.25
2017-10-27T04:12:08.367Z,940.25
2017-10-27T04:13:08.366Z,940.24
2017-10-27T04:14:08.368Z,940.32
2017-10-27T04:15:08.371Z,940.27
2017-10-27T04:16:08.370Z,940.23
2017-10-27T04:17:08.374Z,940.25
2017-10-27T04:18:08.372Z,940.16
2017-10-27T04:19:08.375Z,940.23
2017-10-27T04:20:08.374Z,940.23
2017-10-27T04:21:08.375Z,940.27
2017-10-27T04:22:08.377Z,940.17
2017-10-27T04:23:08.377Z,940.25
2017-10-27T04:24:08.379Z,940.26
2017-10-27T04:25:08.379Z,940.22
2017-10-27T04:26:08.430Z,940.32
2017-10-27T04:27:08.383Z,940.34
2017-10-27T04:28:08.383Z,940.21
2017-10-27T04:29:08.386Z,940.14
2017-10-27T04:30:08.387Z,940.18
2017-10-27T04:31:08.388Z,940.20
2017-10-27T04:32:08.387Z,940.18
2017-10-27T04:33:08.390Z,940.11
2017-10-27T04:34:08.390Z,940.09
2017-10-27T04:35:08.396Z,940.01
2017-10-27T04:36:08.395Z,940.03
2017-10-27T04:37:08.396Z,940.00
2017-10-27T04:38:08.398Z,939.98
2017-10-27T04:39:08.401Z,939.91
2017-10-27T04:40:08.400Z,939.82
2017-10-27T04:41:08.402Z,939.79
2017-10-27T04:42:08.404Z,939.82
2017-10-27T04:43:08.407Z,939.76
2017-10-27T04:44:08.415Z,939.79
2017-10-27T04:45:08.408Z,939.75
2017-10-27T04:46:08.412Z,939.71
2017-10-27T04:47:08.412Z,939.67
2017-10-27T04:48:08.413Z,939.68
2017-10-27T04:49:08.418Z,939.70
2017-10-27T04:50:08.417Z,939.65
2017-10-27T04:51:08.419Z,939.72
2017-10-27T04:52:08.420Z,939.74
2017-10-27T04:53:08.422Z,939.76
2017-10-27T04:54:08.424Z,939.73
2017-10-27T04:55:08.431Z,939.74
2017-10-27T04:56:08.427Z,939.76
2017-10-27T04:57:08.430Z,939.75
2017-10-27T04:58:08.432Z,939.76
2017-10-27T04:59:08.435Z,939.77
2017-10-27T05:00:08.435Z,939.81
2017-10-27T05:01:08.437Z,939.79
2017-10-27T05:02:08.440Z,939.83
2017-10-27T05:03:08.446Z,939.75
2017-10-27T05:04:08.493Z,939.62
2017-10-27T05:05:08.444Z,939.63
2017-10-27T05:06:08.446Z,939.65
2017-10-27T05:07:08.447Z,939.58
2017-10-27T05:08:08.450Z,939.63
2017-10-27T05:09:08.455Z,939.64
2017-10-27T05:10:08.455Z,939.61
2017-10-27T05:11:08.506Z,939.60
2017-10-27T05:12:08.456Z,939.59
2017-10-27T05:13:08.457Z,939.60
2017-10-27T05:14:08.460Z,939.50
2017-10-27T05:15:08.463Z,939.52
2017-10-27T05:16:08.463Z,939.54
2017-10-27T05:17:08.465Z,939.59
2017-10-27T05:18:08.466Z,939.68
2017-10-27T05:19:08.468Z,939.79
2017-10-27T05:20:08.469Z,939.66
2017-10-27T05:21:08.522Z,939.69
2017-10-27T05:22:08.474Z,939.72
2017-10-27T05:23:08.474Z,939.77
2017-10-27T05:24:08.474Z,939.77
2017-10-27T05:25:08.478Z,939.71
2017-10-27T05:26:08.480Z,939.73
2017-10-27T05:27:08.481Z,939.78
2017-10-27T05:28:08.480Z,939.76
2017-10-27T05:29:08.483Z,939.78
2017-10-27T05:30:08.494Z,939.83
2017-10-27T05:31:08.537Z,939.83
2017-10-27T05:32:08.538Z,939.84
2017-10-27T05:33:08.489Z,939.84
2017-10-27T05:34:08.492Z,939.84
2017-10-27T05:35:08.494Z,939.80
2017-10-27T05:36:08.492Z,939.82
2017-10-27T05:37:08.495Z,939.77
2017-10-27T05:38:08.496Z,939.74
2017-10-27T05:39:08.499Z,939.75
2017-10-27T05:40:08.499Z,939.72
2017-10-27T05:41:08.501Z,939.76
2017-10-27T05:42:08.502Z,939.74
2017-10-27T05:43:08.505Z,939.78
2017-10-27T05:44:08.505Z,939.74
2017-10-27T05:45:08.506Z,939.70
2017-10-27T05:46:08.508Z,939.66
2017-10-27T05:47:08.510Z,939.71
2017-10-27T05:48:08.510Z,939.65
2017-10-27T05:49:08.513Z,939.69
2017-10-27T05:50:08.514Z,939.67
2017-10-27T05:51:08.517Z,939.70
2017-10-27T05:52:08.516Z,939.69
2017-10-27T05:53:08.568Z,939.63
2017-10-27T05:54:08.522Z,939.75
2017-10-27T05:55:08.522Z,939.71
2017-10-27T05:56:08.525Z,939.73
2017-10-27T05:57:08.525Z,939.70
2017-10-27T05:58:08.527Z,939.72
2017-10-27T05:59:08.529Z,939.67
2017-10-27T06:00:08.530Z,939.68
2017-10-27T06:01:08.530Z,939.71
2017-10-27T06:02:08.532Z,939.73
2017-10-27T06:03:08.535Z,939.68
2017-10-27T06:04:08.536Z,939.65
2017-10-27T06:05:08.537Z,939.65
2017-10-27T06:06:08.540Z,939.61
2017-10-27T06:07:08.541Z,939.61
2017-10-27T06:08:08.542Z,939.65
2017-10-27T06:09:08.545Z,939.67
2017-10-27T06:10:08.545Z,939.66
2017-10-27T06:11:08.549Z,939.67
2017-10-27T06:12:08.549Z,939.70
2017-10-27T06:13:08.550Z,939.68
2017-10-27T06:14:08.553Z,939.65
2017-10-27T06:15:08.554Z,939.66
2017-10-27T06:16:08.556Z,939.67
2017-10-27T06:17:08.557Z,939.67
2017-10-27T06:18:08.559Z,939.67
2017-10-27T06:19:08.561Z,939.60
2017-10-27T06:20:08.563Z,939.63
2017-10-27T06:21:08.613Z,939.65
2017-10-27T06:22:08.577Z,939.63
2017-10-27T06:23:08.569Z,939.63
2017-10-27T06:24:08.568Z,939.63
2017-10-27T06:25:08.571Z,939.73
2017-10-27T06:26:08.573Z,939.73
2017-10-27T06:27:08.575Z,939.68
2017-10-27T06:28:08.575Z,939.69
2017-10-27T06:29:08.579Z,939.66
2017-10-27T06:30:08.579Z,939.70
2017-10-27T06:31:08.585Z,939.74
2017-10-27T06:32:08.583Z,939.69
2017-10-27T06:33:08.593Z,939.73
2017-10-27T06:34:08.586Z,939.74
2017-10-27T06:35:08.588Z,939.71
2017-10-27T06:36:08.589Z,939.73
2017-10-27T06:37:08.593Z,939.83
2017-10-27T06:38:08.593Z,939.75
2017-10-27T06:39:08.596Z,939.80
2017-10-27T06:40:08.596Z,939.86
2017-10-27T06:41:08.598Z,939.87
2017-10-27T06:42:08.599Z,939.87
2017-10-27T06:43:08.602Z,939.86
2017-10-27T06:44:08.603Z,939.85
2017-10-27T06:45:08.605Z,939.87
2017-10-27T06:46:08.607Z,939.88
2017-10-27T06:47:08.610Z,939.82
2017-10-27T06:48:08.610Z,939.79
2017-10-27T06:49:08.616Z,939.78
2017-10-27T06:50:08.613Z,939.69
2017-10-27T06:51:08.616Z,939.76
2017-10-27T06:52:08.620Z,939.76
2017-10-27T06:53:08.618Z,939.76
2017-10-27T06:54:08.668Z,939.80
2017-10-27T06:55:08.624Z,939.81
2017-10-27T06:56:08.625Z,939.80
2017-10-27T06:57:08.626Z,939.81
2017-10-27T06:58:08.627Z,939.78
2017-10-27T06:59:08.629Z,939.82
2017-10-27T07:00:08.631Z,939.81
2017-10-27T07:01:08.633Z,939.79
2017-10-27T07:02:08.635Z,939.79
2017-10-27T07:03:08.689Z,939.76
2017-10-27T07:04:08.636Z,939.83
2017-10-27T07:05:08.640Z,939.84
2017-10-27T07:06:08.641Z,939.82
2017-10-27T07:07:08.644Z,939.77
2017-10-27T07:08:08.648Z,939.80
2017-10-27T07:09:08.649Z,939.82
2017-10-27T07:10:08.649Z,939.83
2017-10-27T07:11:08.650Z,939.85
2017-10-27T07:12:08.702Z,939.96
2017-10-27T07:13:08.651Z,939.98
2017-10-27T07:14:08.654Z,940.00
2017-10-27T07:15:08.657Z,939.98
2017-10-27T07:16:08.657Z,940.03
2017-10-27T07:17:08.658Z,939.92
2017-10-27T07:18:08.664Z,939.98
2017-10-27T07:19:08.662Z,939.93
2017-10-27T07:20:08.664Z,940.00
2017-10-27T07:21:08.667Z,940.07
2017-10-27T07:22:08.666Z,940.12
2017-10-27T07:23:08.668Z,940.12
2017-10-27T07:24:08.669Z,940.13
2017-10-27T07:25:08.670Z,940.09
2017-10-27T07:26:08.672Z,940.10
2017-10-27T07:27:08.675Z,940.21
2017-10-27T07:28:08.674Z,940.15
2017-10-27T07:29:08.675Z,940.12
2017-10-27T07:30:08.679Z,940.05
2017-10-27T07:31:08.680Z,940.14
2017-10-27T07:32:08.679Z,940.23
2017-10-27T07:33:08.679Z,940.14
2017-10-27T07:34:08.680Z,940.09
2017-10-27T07:35:08.681Z,940.11
2017-10-27T07:36:08.692Z,940.13
2017-10-27T07:37:08.694Z,940.18
2017-10-27T07:38:08.685Z,940.18
2017-10-27T07:39:08.737Z,940.26
2017-10-27T07:40:08.686Z,940.42
2017-10-27T07:41:08.738Z,940.54
2017-10-27T07:42:08.687Z,940.63
2017-10-27T07:43:08.688Z,940.67
2017-10-27T07:44:08.688Z,940.59
2017-10-27T07:45:08.689Z,940.67
2017-10-27T07:46:08.690Z,940.60
2017-10-27T07:47:08.690Z,940.60
2017-10-27T07:48:08.694Z,940.71
2017-10-27T07:49:08.742Z,940.74
2017-10-27T07:50:08.692Z,940.75
2017-10-27T07:51:08.714Z,940.75
2017-10-27T07:52:08.693Z,940.74
2017-10-27T07:53:08.693Z,940.71
2017-10-27T07:54:08.697Z,940.70
2017-10-27T07:55:08.694Z,940.77
2017-10-27T07:56:08.694Z,940.73
2017-10-27T07:57:08.700Z,940.73
2017-10-27T07:58:08.696Z,940.64
2017-10-27T07:59:08.697Z,940.62
2017-10-27T08:00:08.697Z,940.62
2017-10-27T08:01:08.698Z,940.63
2017-10-27T08:02:08.700Z,940.60
2017-10-27T08:03:08.701Z,940.58
2017-10-27T08:04:08.700Z,940.59
2017-10-27T08:05:08.701Z,940.58
2017-10-27T08:06:08.702Z,940.57
2017-10-27T08:07:08.702Z,940.59
2017-10-27T08:08:08.704Z,940.60
2017-10-27T08:09:08.703Z,940.61
2017-10-27T08:10:08.704Z,940.57
2017-10-27T08:11:08.705Z,940.53
2017-10-27T08:12:08.706Z,940.62
2017-10-27T08:13:08.706Z,940.63
2017-10-27T08:14:08.708Z,940.66
2017-10-27T08:15:08.708Z,940.73
2017-10-27T08:16:08.708Z,940.86
2017-10-27T08:17:08.710Z,940.85
2017-10-27T08:18:08.712Z,940.86
2017-10-27T08:19:08.711Z,940.89
2017-10-27T08:20:08.711Z,940.86
2017-10-27T08:21:08.712Z,940.85
2017-10-27T08:22:08.713Z,940.86
2017-10-27T08:23:08.715Z,940.79
2017-10-27T08:24:08.722Z,940.81
2017-10-27T08:25:08.715Z,940.75
2017-10-27T08:26:08.718Z,940.64
2017-10-27T08:27:08.718Z,940.66
2017-10-27T08:28:08.718Z,940.69
2017-10-27T08:29:08.720Z,940.79
2017-10-27T08:30:08.720Z,940.79
2017-10-27T08:31:08.723Z,940.81
2017-10-27T08:32:08.721Z,940.90
2017-10-27T08:33:08.722Z,940.86
2017-10-27T08:34:08.724Z,940.86
2017-10-27T08:35:08.725Z,940.90
2017-10-27T08:36:08.724Z,940.88
2017-10-27T08:37:08.725Z,940.99
2017-10-27T08:38:08.779Z,941.09
2017-10-27T08:39:08.727Z,941.11
2017-10-27T08:40:08.729Z,941.18
2017-10-27T08:41:08.729Z,941.16
2017-10-27T08:42:08.731Z,941.17
2017-10-27T08:43:08.732Z,941.16
2017-10-27T08:44:08.731Z,941.20
2017-10-27T08:45:08.732Z,941.09
2017-10-27T08:46:08.734Z,941.09
2017-10-27T08:47:08.733Z,941.12
2017-10-27T08:48:08.735Z,941.17
2017-10-27T08:49:08.745Z,941.18
2017-10-27T08:50:08.737Z,941.24
2017-10-27T08:51:08.736Z,941.25
2017-10-27T08:52:08.737Z,941.25
2017-10-27T08:53:08.738Z,941.20
2017-10-27T08:54:08.738Z,941.23
2017-10-27T08:55:08.740Z,941.23
2017-10-27T08:56:08.740Z,941.32
2017-10-27T08:57:08.739Z,941.28
2017-10-27T08:58:08.740Z,941.26
2017-10-27T08:59:08.742Z,941.35
2017-10-27T09:00:08.743Z,941.35
2017-10-27T09:01:08.741Z,941.31
2017-10-27T09:02:08.744Z,941.39
2017-10-27T09:03:08.744Z,941.41
2017-10-27T09:04:08.745Z,941.52
2017-10-27T09:05:08.743Z,941.53
2017-10-27T09:06:08.745Z,941.52
2017-10-27T09:07:08.745Z,941.56
2017-10-27T09:08:08.744Z,941.60
2017-10-27T09:09:08.745Z,941.54
2017-10-27T09:10:08.745Z,941.65
2017-10-27T09:11:08.748Z,941.58
2017-10-27T09:12:08.746Z,941.59
2017-10-27T09:13:08.749Z,941.64
2017-10-27T09:14:08.748Z,941.67
2017-10-27T09:15:08.749Z,941.61
2017-10-27T09:16:08.749Z,941.64
2017-10-27T09:17:08.749Z,941.69
2017-10-27T09:18:08.750Z,941.60
2017-10-27T09:19:08.750Z,941.61
2017-10-27T09:20:08.752Z,941.62
2017-10-27T09:21:08.752Z,941.59
2017-10-27T09:22:08.752Z,941.59
2017-10-27T09:23:08.754Z,941.59
2017-10-27T09:24:08.752Z,941.57
2017-10-27T09:25:08.754Z,941.55
2017-10-27T09:26:08.756Z,941.52
2017-10-27T09:27:08.756Z,941.49
2017-10-27T09:28:08.753Z,941.51
2017-10-27T09:29:08.809Z,941.39
2017-10-27T09:30:08.757Z,941.35
2017-10-27T09:31:08.758Z,941.39
2017-10-27T09:32:08.757Z,941.38
2017-10-27T09:33:08.760Z,941.35
2017-10-27T09:34:08.759Z,941.40
2017-10-27T09:35:08.759Z,941.37
2017-10-27T09:36:08.767Z,941.33
2017-10-27T09:37:08.760Z,941.40
2017-10-27T09:38:08.762Z,941.44
2017-10-27T09:39:08.763Z,941.47
2017-10-27T09:40:08.763Z,941.51
2017-10-27T09:41:08.765Z,941.58
2017-10-27T09:42:08.765Z,941.64
2017-10-27T09:43:08.766Z,941.69
2017-10-27T09:44:08.763Z,941.77
2017-10-27T09:45:08.766Z,941.87
2017-10-27T09:46:08.768Z,942.04
2017-10-27T09:47:08.767Z,942.08
2017-10-27T09:48:08.767Z,942.14
2017-10-27T09:49:08.768Z,942.05
2017-10-27T09:50:08.769Z,942.08
2017-10-27T09:51:08.771Z,942.02
2017-10-27T09:52:08.768Z,941.99
2017-10-27T09:53:08.768Z,941.97
2017-10-27T09:54:08.769Z,942.18
2017-10-27T09:55:08.768Z,942.13
2017-10-27T09:56:08.777Z,942.21
2017-10-27T09:57:08.819Z,942.20
2017-10-27T09:58:08.768Z,942.23
2017-10-27T09:59:08.768Z,942.27
2017-10-27T10:00:08.768Z,942.30
2017-10-27T10:01:08.767Z,942.34
2017-10-27T10:02:08.769Z,942.38
2017-10-27T10:03:08.768Z,942.38
2017-10-27T10:04:08.768Z,942.44
2017-10-27T10:05:08.767Z,942.43
2017-10-27T10:06:08.768Z,942.48
2017-10-27T10:07:08.766Z,942.49
2017-10-27T10:08:08.766Z,942.53
2017-10-27T10:09:08.765Z,942.72
2017-10-27T10:10:08.766Z,942.67
2017-10-27T10:11:08.766Z,942.75
2017-10-27T10:12:08.765Z,942.89
2017-10-27T10:13:08.764Z,942.82
2017-10-27T10:14:08.764Z,942.82
2017-10-27T10:15:08.764Z,942.92
2017-10-27T10:16:08.764Z,943.03
2017-10-27T10:17:08.762Z,943.02
2017-10-27T10:18:08.763Z,943.15
2017-10-27T10:19:08.762Z,943.13
2017-10-27T10:20:08.760Z,943.20
2017-10-27T10:21:08.759Z,943.24
2017-10-27T10:22:08.760Z,943.29
2017-10-27T10:23:08.759Z,943.28
2017-10-27T10:24:08.757Z,943.31
2017-10-27T10:25:08.758Z,943.36
2017-10-27T10:26:08.756Z,943.45
2017-10-27T10:27:08.756Z,943.46
2017-10-27T10:28:08.755Z,943.53
2017-10-27T10:29:08.755Z,943.51
2017-10-27T10:30:08.754Z,943.60
2017-10-27T10:31:08.753Z,943.63
2017-10-27T10:32:08.753Z,943.67
2017-10-27T10:33:08.750Z,943.70
2017-10-27T10:34:08.751Z,943.69
2017-10-27T10:35:08.750Z,943.81
2017-10-27T10:36:08.748Z,943.80
2017-10-27T10:37:08.746Z,943.79
2017-10-27T10:38:08.747Z,943.81
2017-10-27T10:39:08.746Z,943.87
2017-10-27T10:40:08.755Z,943.91
2017-10-27T10:41:08.745Z,943.90
2017-10-27T10:42:08.745Z,943.94
2017-10-27T10:43:08.743Z,944.00
2017-10-27T10:44:08.742Z,943.98
2017-10-27T10:45:08.741Z,943.99
2017-10-27T10:46:08.740Z,944.02
2017-10-27T10:47:08.740Z,944.04
2017-10-27T10:48:08.738Z,944.08
2017-10-27T10:49:08.738Z,944.09
2017-10-27T10:50:08.737Z,944.16
2017-10-27T10:51:08.736Z,944.22
2017-10-27T10:52:08.744Z,944.20
2017-10-27T10:53:08.734Z,944.21
2017-10-27T10:54:08.735Z,944.25
2017-10-27T10:55:08.735Z,944.28
2017-10-27T10:56:08.731Z,944.37
2017-10-27T10:57:08.738Z,944.38
2017-10-27T10:58:08.730Z,944.33
2017-10-27T10:59:08.730Z,944.38
2017-10-27T11:00:08.736Z,944.38
2017-10-27T11:01:08.727Z,944.49
2017-10-27T11:02:08.726Z,944.45
2017-10-27T11:03:08.726Z,944.51
2017-10-27T11:04:08.724Z,944.48
2017-10-27T11:05:08.724Z,944.53
2017-10-27T11:06:08.722Z,944.56
2017-10-27T11:07:08.721Z,944.45
2017-10-27T11:08:08.720Z,944.54
2017-10-27T11:09:08.718Z,944.58
2017-10-27T11:10:08.768Z,944.59
2017-10-27T11:11:08.717Z,944.61
2017-10-27T11:12:08.714Z,944.61
2017-10-27T11:13:08.715Z,944.61
2017-10-27T11:14:08.712Z,944.65
2017-10-27T11:15:08.716Z,944.68
2017-10-27T11:16:08.709Z,944.65
2017-10-27T11:17:08.711Z,944.69
2017-10-27T11:18:08.708Z,944.73
2017-10-27T11:19:08.706Z,944.78
2017-10-27T11:20:08.705Z,944.74
2017-10-27T11:21:08.754Z,944.82
2017-10-27T11:22:08.703Z,944.87
2017-10-27T11:23:08.703Z,944.91
2017-10-27T11:24:08.700Z,944.92
2017-10-27T11:25:08.700Z,944.97
2017-10-27T11:26:08.698Z,944.90
2017-10-27T11:27:08.696Z,944.94
2017-10-27T11:28:08.695Z,944.88
2017-10-27T11:29:08.693Z,944.97
2017-10-27T11:30:08.693Z,944.94
2017-10-27T11:31:08.692Z,944.99
2017-10-27T11:32:08.689Z,944.98
2017-10-27T11:33:08.689Z,944.97
2017-10-27T11:34:08.687Z,945.02
2017-10-27T11:35:08.686Z,945.02
2017-10-27T11:36:08.684Z,945.00
2017-10-27T11:37:08.732Z,944.95
2017-10-27T11:38:08.681Z,944.96
2017-10-27T11:39:08.686Z,945.09
2017-10-27T11:40:08.684Z,945.12
2017-10-27T11:41:08.678Z,945.09
2017-10-27T11:42:08.679Z,945.06
2017-10-27T11:43:08.676Z,945.06
2017-10-27T11:44:08.673Z,945.06
2017-10-27T11:45:08.674Z,945.03
2017-10-27T11:46:08.672Z,945.03
2017-10-27T11:47:08.689Z,945.05
2017-10-27T11:48:08.669Z,945.05
2017-10-27T11:49:08.668Z,945.06
2017-10-27T11:50:08.667Z,945.08
2017-10-27T11:51:08.666Z,945.10
2017-10-27T11:52:08.664Z,945.11
2017-10-27T11:53:08.663Z,945.16
2017-10-27T11:54:08.663Z,945.22
2017-10-27T11:55:08.662Z,945.20
2017-10-27T11:56:08.660Z,945.27
2017-10-27T11:57:08.659Z,945.24
2017-10-27T11:58:08.658Z,945.19
2017-10-27T11:59:08.660Z,945.24
2017-10-27T12:00:08.655Z,945.25
2017-10-27T12:01:08.655Z,945.26
2017-10-27T12:02:08.654Z,945.30
2017-10-27T12:03:08.652Z,945.30
2017-10-27T12:04:08.658Z,945.24
2017-10-27T12:05:08.650Z,945.29
2017-10-27T12:06:08.649Z,945.32
2017-10-27T12:07:08.647Z,945.31
2017-10-27T12:08:08.646Z,945.29
2017-10-27T12:09:08.645Z,945.30
2017-10-27T12:10:08.645Z,945.32
2017-10-27T12:11:08.648Z,945.32
2017-10-27T12:12:08.647Z,945.30
2017-10-27T12:13:08.642Z,945.30
2017-10-27T12:14:08.641Z,945.32
2017-10-27T12:15:08.640Z,945.38
2017-10-27T12:16:08.638Z,945.42
2017-10-27T12:17:08.639Z,945.41
2017-10-27T12:18:08.639Z,945.41
2017-10-27T12:19:08.639Z,945.40
2017-10-27T12:20:08.639Z,945.38
2017-10-27T12:21:08.635Z,945.38
2017-10-27T12:22:08.636Z,945.44
2017-10-27T12:23:08.634Z,945.46
2017-10-27T12:24:08.632Z,945.44
2017-10-27T12:25:08.633Z,945.48
2017-10-27T12:26:08.631Z,945.47
2017-10-27T12:27:08.642Z,945.49
2017-10-27T12:28:08.632Z,945.51